Harlingen, TX

4:00 PM CDT on May 27, 2015 (GMT -0500)
KNIGHTWOOD/WD5ADC | | Change Station
CLOSE
Current Station
Personal Weather Station
Location: Harlingen, TX
Elevation: 49 ft
Nearby Weather Stations

Elev 49 ft 26.22 °N, 97.69 °W | Updated 12 minutes ago

Partly Cloudy
Partly Cloudy
89.0 °F
Feels Like 103 °F
N
4.0
Wind Variable Wind from ENE
Gusts 12.0 mph

Today
High -- | Low -- °F
--% Chance of Precip.
Yesterday
High -- | Low -- °F
Precip. -- in
6:39 AM 8:16 PM
Waxing Gibbous, 70% visible
Pressure 29.97 in
Visibility 10.0 miles
Clouds Few 2800 ft
Scattered Clouds 3700 ft
Heat Index 103 °F
Dew Point 78 °F
Humidity 70%
Rainfall 0.00 in
Snow Depth Not available.
UV 7 out of 12
Pollen 6.50 out of 12
Air Quality Not available.
Flu Activity Sporadic
METAR KHRL 272052Z 10015KT 10SM FEW028 SCT037 32/24 A2997 RMK AO2 SLP147 T03220244 56011

More Conditions Fewer Conditions

Pressure 29.97 in
Visibility 10.0 miles
Clouds Few 2800 ft
Scattered Clouds 3700 ft
Heat Index 103 °F
Dew Point 78 °F
Humidity 70%
Rainfall 0.00 in
Snow Depth Not available.
UV 7 out of 12
Pollen 6.50 out of 12
Air Quality Not available.
Flu Activity Sporadic
METAR KHRL 272052Z 10015KT 10SM FEW028 SCT037 32/24 A2997 RMK AO2 SLP147 T03220244 56011

More Conditions Fewer Conditions

10-Day Weather Forecast

Almanac

Astronomy

May. 27, 2015 Rise Set
Actual Time
Civil Twilight
Nautical Twilight
Astronomical Twilight
Moon
Length of Visible Light
Length of Day
Tomorrow will be .
, % of the Moon is Illuminated

Today's Extremes

State Highs State Lows

Community

WunderPhotos

Upload Photos

1,824,796 photos uploaded!

WunderBlogs® & News

Nearby

Air Quality

  Air Quality AQ Index Pollutant
Not available.

Snow Depth

Station Depth Elevation

Earthquake Activity

City Distance Mag. Time & Date
Minimum magnitude displayed is 2.5.

Coastal Water Temperatures

Place Temperature

Stations

Nearby Weather Stations

Station Location Temp. Windchill Dew Point Humidity Wind Precip. Elev Updated Type